NCAR-RAP Real-Time Weather Data

Output produced by METARs form (10 April 2020  07:25 UTC)
found at http://weather.rap.ucar.edu/surface/
 
KILM 100653Z AUTO 32009KT 10SM CLR 20/06 A2961 RMK AO2 SLP027 T02000056 TSNO